Latest Weather Observations for Spring Bay

IDT60801

Issued at 1:31 pm EST Saturday 29 April 2017 (issued every 30 minutes, with the page automatically refreshed every 10 minutes)

About weather observations | Map of weather stations | Latest weather observations for TAS | Other Formats
Station Details ID: 092133 Name: SPRING BAY NTC AWS Lat: -42.55 Lon: 147.93 Height: 0.0 m
Data from the previous 72 hours. | See also: Recent months for locations in Tasmania
Date/Time
EST
Temp
°C
App
Temp
°C
Dew
Point
°C
Rel
Hum
%
Delta-T
°C
Wind Press
QNH
hPa
Press
MSL
hPa
Rain since
9am
mm
Dir  Spd
km/h
Gust
km/h
Spd
kts
Gust
kts
29/01:30pm 17.9 - - - - - - - - - 1016.3 1016.3 -
29/01:00pm 17.0 - - - - - - - - - 1016.4 1016.4 -
29/12:30pm 17.1 - - - - - - - - - 1016.5 1016.5 -
29/12:00pm 17.0 - - - - - - - - - 1016.6 1016.6 -
29/11:30am 16.3 - - - - - - - - - 1016.5 1016.5 -
29/11:00am 16.1 - - - - - - - - - 1016.5 1016.5 -
29/10:30am 16.0 - - - - - - - - - 1016.2 1016.2 -
29/10:00am 15.5 - - - - - - - - - 1015.8 1015.8 -
29/09:30am 15.5 - - - - - - - - - 1015.4 1015.4 -
29/09:00am 15.3 - - - - - - - - - 1015.0 1015.0 -
29/08:30am 14.7 - - - - - - - - - 1014.6 1014.6 -
29/08:00am 14.6 - - - - - - - - - 1014.2 1014.2 -
29/07:30am 13.5 - - - - - - - - - 1013.6 1013.6 -
29/07:00am 12.8 - - - - - - - - - 1013.2 1013.2 -
29/06:30am 13.1 - - - - - - - - - 1012.9 1012.9 -
29/06:00am 13.9 - - - - - - - - - 1012.4 1012.4 -
29/05:30am 12.9 - - - - - - - - - 1012.0 1012.0 -
29/05:00am 12.9 - - - - - - - - - 1011.8 1011.8 -
29/04:30am 14.8 - - - - - - - - - 1011.3 1011.3 -
29/04:00am 14.4 - - - - - - - - - 1010.7 1010.7 -
29/03:30am 15.5 - - - - - - - - - 1010.4 1010.4 -
29/03:00am 15.1 - - - - - - - - - 1010.3 1010.3 -
29/02:30am 15.1 - - - - - - - - - 1010.3 1010.3 -
29/02:00am 13.9 - - - - - - - - - 1010.6 1010.6 -
29/01:30am 14.5 - - - - - - - - - 1010.3 1010.3 -
29/01:00am 15.6 - - - - - - - - - 1010.1 1010.1 -
29/12:30am 15.2 - - - - - - - - - 1010.2 1010.2 -
29/12:00am 14.5 - - - - - - - - - 1010.2 1010.2 -
 
Date/Time
EST
Temp
°C
App
Temp
°C
Dew
Point
°C
Rel
Hum
%
Delta-T
°C
Wind Press
QNH
hPa
Press
MSL
hPa
Rain since
9am
mm
Dir  Spd
km/h
Gust
km/h
Spd
kts
Gust
kts
28/11:30pm 14.6 - - - - - - - - - 1010.2 1010.2 -
28/11:00pm 15.5 - - - - - - - - - 1010.2 1010.2 -
28/10:30pm 16.0 - - - - - - - - - 1010.1 1010.1 -
28/10:00pm 16.7 - - - - - - - - - 1010.3 1010.3 -
28/09:30pm 16.9 - - - - - - - - - 1010.4 1010.4 -
28/09:00pm 17.0 - - - - - - - - - 1010.4 1010.4 -
28/08:30pm 16.6 - - - - - - - - - 1010.4 1010.4 -
28/08:00pm 16.3 - - - - - - - - - 1010.4 1010.4 -
28/07:30pm 16.6 - - - - - - - - - 1010.7 1010.7 -
28/07:00pm 16.7 - - - - - - - - - 1010.7 1010.7 -
28/06:30pm 16.6 - - - - - - - - - 1010.8 1010.8 -
28/06:00pm 16.9 - - - - - - - - - 1010.9 1010.9 -
28/05:30pm 17.3 - - - - - - - - - 1010.6 1010.6 -
28/05:00pm 17.9 - - - - - - - - - 1010.4 1010.4 -
28/04:30pm 18.7 - - - - - - - - - 1010.4 1010.4 -
28/04:00pm 19.1 - - - - - - - - - 1010.2 1010.2 -
28/03:30pm 19.1 - - - - - - - - - 1010.5 1010.5 -
28/03:00pm 19.3 - - - - - - - - - 1010.7 1010.7 -
28/02:30pm 19.5 - - - - - - - - - 1010.8 1010.8 -
28/02:00pm 18.5 - - - - - - - - - 1010.8 1010.8 -
28/01:30pm 18.2 - - - - - - - - - 1011.2 1011.2 -
28/01:00pm 17.2 - - - - - - - - - 1011.6 1011.6 -
28/12:30pm 16.5 - - - - - - - - - 1012.1 1012.1 -
28/12:00pm 15.6 - - - - - - - - - 1013.0 1013.0 -
28/11:30am 15.2 - - - - - - - - - 1013.6 1013.6 -
28/11:00am 14.9 - - - - - - - - - 1014.0 1014.0 -
28/10:30am 14.8 - - - - - - - - - 1014.4 1014.4 -
28/10:00am 14.9 - - - - - - - - - 1014.6 1014.6 -
28/09:30am 13.8 - - - - - - - - - 1014.8 1014.8 -
28/09:00am 13.8 - - - - - - - - - 1014.8 1014.8 -
28/08:30am 10.9 - - - - - - - - - 1014.9 1014.9 -
28/08:00am 10.1 - - - - - - - - - 1015.1 1015.1 -
28/07:30am 9.0 - - - - - - - - - 1014.8 1014.8 -
28/07:00am 9.0 - - - - - - - - - 1014.7 1014.7 -
28/06:30am 9.9 - - - - - - - - - 1014.5 1014.5 -
28/06:00am 10.8 - - - - - - - - - 1014.4 1014.4 -
28/05:30am 11.5 - - - - - - - - - 1014.3 1014.3 -
28/05:00am 11.3 - - - - - - - - - 1014.0 1014.0 -
28/04:30am 11.2 - - - - - - - - - 1014.1 1014.1 -
28/04:00am 11.4 - - - - - - - - - 1014.0 1014.0 -
28/03:30am 11.5 - - - - - - - - - 1013.8 1013.8 -
28/03:00am 11.1 - - - - - - - - - 1013.9 1013.9 -
28/02:30am 12.6 - - - - - - - - - 1013.9 1013.9 -
28/02:00am 12.4 - - - - - - - - - 1013.6 1013.6 -
28/01:30am 11.5 - - - - - - - - - 1013.4 1013.4 -
28/01:00am 11.7 - - - - - - - - - 1013.4 1013.4 -
28/12:30am 11.3 - - - - - - - - - 1013.6 1013.6 -
28/12:00am 11.7 - - - - - - - - - 1013.8 1013.8 -
 
Date/Time
EST
Temp
°C
App
Temp
°C
Dew
Point
°C
Rel
Hum
%
Delta-T
°C
Wind Press
QNH
hPa
Press
MSL
hPa
Rain since
9am
mm
Dir  Spd
km/h
Gust
km/h
Spd
kts
Gust
kts
27/11:30pm 12.1 - - - - - - - - - 1013.9 1013.9 -
27/11:00pm 12.2 - - - - - - - - - 1013.9 1013.9 -
27/10:30pm 13.6 - - - - - - - - - 1014.1 1014.1 -
27/10:00pm 12.9 - - - - - - - - - 1014.4 1014.4 -
27/09:30pm 13.0 - - - - - - - - - 1014.3 1014.3 -
27/09:00pm 13.2 - - - - - - - - - 1014.2 1014.2 -
27/08:30pm 12.5 - - - - - - - - - 1014.6 1014.6 -
27/08:00pm 12.4 - - - - - - - - - 1014.7 1014.7 -
27/07:30pm 12.2 - - - - - - - - - 1014.9 1014.9 -
27/07:00pm 12.4 - - - - - - - - - 1014.9 1014.9 -
27/06:30pm 12.5 - - - - - - - - - 1015.3 1015.3 -
27/06:00pm 12.5 - - - - - - - - - 1015.5 1015.5 -
27/05:30pm 12.8 - - - - - - - - - 1015.4 1015.4 -
27/05:00pm 13.2 - - - - - - - - - 1015.6 1015.6 -
27/04:30pm 13.4 - - - - - - - - - 1015.6 1015.6 -
27/04:00pm 13.7 - - - - - - - - - 1015.7 1015.7 -
27/03:30pm 13.4 - - - - - - - - - 1015.8 1015.8 -
27/03:00pm 13.2 - - - - - - - - - 1015.9 1015.9 -
27/02:30pm 13.2 - - - - - - - - - 1015.8 1015.8 -
27/02:00pm 12.7 - - - - - - - - - 1015.7 1015.7 -
27/01:30pm 12.8 - - - - - - - - - 1016.1 1016.1 -
27/01:00pm 12.7 - - - - - - - - - 1017.2 1017.2 -
27/12:30pm 12.0 - - - - - - - - - 1017.6 1017.6 -
27/12:00pm 11.7 - - - - - - - - - 1017.8 1017.8 -
27/11:30am 11.7 - - - - - - - - - 1018.6 1018.6 -
27/11:00am 11.6 - - - - - - - - - 1018.4 1018.4 -
27/10:30am 10.8 - - - - - - - - - 1018.9 1018.9 -
27/10:00am 9.9 - - - - - - - - - 1018.8 1018.8 -
27/09:30am 8.7 - - - - - - - - - 1019.0 1019.0 -
27/09:00am 7.9 - - - - - - - - - 1019.0 1019.0 -
27/08:30am 7.6 - - - - - - - - - 1019.1 1019.1 -
27/08:00am 7.3 - - - - - - - - - 1018.8 1018.8 -
27/07:30am 6.4 - - - - - - - - - 1018.5 1018.5 -
27/07:00am 6.6 - - - - - - - - - 1018.6 1018.6 -
27/06:30am 6.6 - - - - - - - - - 1018.6 1018.6 -
27/06:00am 6.5 - - - - - - - - - 1018.5 1018.5 -
27/05:30am 6.7 - - - - - - - - - 1018.5 1018.5 -
27/05:00am 6.8 - - - - - - - - - 1018.1 1018.1 -
27/04:30am 6.4 - - - - - - - - - 1017.8 1017.8 -
27/04:00am 7.3 - - - - - - - - - 1017.4 1017.4 -
27/03:30am 6.9 - - - - - - - - - 1017.2 1017.2 -
27/03:00am 7.2 - - - - - - - - - 1017.4 1017.4 -
27/02:30am 7.6 - - - - - - - - - 1017.6 1017.6 -
27/02:00am 7.5 - - - - - - - - - 1017.7 1017.7 -
27/01:30am 7.3 - - - - - - - - - 1017.6 1017.6 -
27/01:00am 8.1 - - - - - - - - - 1017.6 1017.6 -
27/12:30am 8.3 - - - - - - - - - 1017.5 1017.5 -
27/12:00am 8.3 - - - - - - - - - 1017.1 1017.1 -

Other Formats:

Comma delimited format used in spreadsheet applications
http://www.bom.gov.au/fwo/IDT60801/IDT60801.95987.axf

JavaScript Object Notation format (JSON) in row-major order
http://www.bom.gov.au/fwo/IDT60801/IDT60801.95987.json